Wednesday, February 22, 2017, 12:22 PM EST

KJYO, Leesburg / Godfrey

Location: Leesburg, VA, United States Lat: 39.083
Local Time: 12:22 PM EST (17:22 GMT) Lon: -77.567
Time Zone: US/Eastern Elev: 390 ft

Show me the last for .
Show Decoded

2017-02-22 11:55 METAR KJYO 221655Z AUTO 03006KT 10SM CLR 14/07 A2998 RMK AO2 =
2017-02-22 11:35 METAR KJYO 221635Z AUTO 00000KT 10SM CLR 14/07 A2999 RMK AO2 =
2017-02-22 11:15 METAR KJYO 221615Z AUTO 13004KT 10SM CLR 13/07 A3000 RMK AO2 =
2017-02-22 10:55 METAR KJYO 221555Z AUTO 00000KT 10SM CLR 12/07 A3000 RMK AO2 =
2017-02-22 10:35 METAR KJYO 221535Z AUTO 10SM CLR 12/07 A3001 RMK AO2 =
2017-02-22 10:15 METAR KJYO 221515Z AUTO 10SM SCT065 SCT090 11/07 A3001 RMK AO2 =
2017-02-22 09:55 METAR KJYO 221455Z AUTO 10SM SCT065 BKN090 11/06 A3002 RMK AO2 =
2017-02-22 09:35 METAR KJYO 221435Z AUTO 10SM BKN065 OVC090 11/07 A3003 RMK AO2 =
2017-02-22 09:15 METAR KJYO 221415Z AUTO 10SM SCT065 OVC100 10/06 A3003 RMK AO2 =
2017-02-22 08:55 METAR KJYO 221355Z AUTO 10SM SCT060 BKN110 10/06 A3003 RMK AO2 =
2017-02-22 08:35 METAR KJYO 221335Z AUTO 10SM SCT060 BKN100 09/06 A3004 RMK AO2 =
2017-02-22 08:15 METAR KJYO 221315Z AUTO 10SM OVC100 08/06 A3004 RMK AO2 =
2017-02-22 07:55 METAR KJYO 221255Z AUTO 10SM BKN100 08/06 A3004 RMK AO2 =
2017-02-22 07:35 METAR KJYO 221235Z AUTO 10SM SCT100 07/05 A3004 RMK AO2 =
2017-02-22 07:15 METAR KJYO 221215Z AUTO 10SM BKN100 08/05 A3004 RMK AO2 =
2017-02-22 06:55 METAR KJYO 221155Z AUTO 10SM SCT110 07/05 A3003 RMK AO2 =
2017-02-22 06:35 METAR KJYO 221135Z AUTO 10SM CLR 08/05 A3003 RMK AO2 =
2017-02-22 06:15 METAR KJYO 221115Z AUTO 10SM CLR 08/05 A3003 RMK AO2 =
2017-02-22 05:55 METAR KJYO 221055Z AUTO 10SM CLR 08/05 A3003 RMK AO2 =
2017-02-22 05:35 METAR KJYO 221035Z AUTO 10SM CLR 08/05 A3003 RMK AO2 =
2017-02-22 05:15 METAR KJYO 221015Z AUTO 10SM SCT080 08/05 A3002 RMK AO2 =
2017-02-22 04:55 METAR KJYO 220955Z AUTO 10SM CLR 08/05 A3003 RMK AO2 =
2017-02-22 04:35 METAR KJYO 220935Z AUTO 10SM CLR 08/05 A3003 RMK AO2 =
2017-02-22 04:15 METAR KJYO 220915Z AUTO 10SM SCT120 08/05 A3003 RMK AO2 =
2017-02-22 03:55 METAR KJYO 220855Z AUTO 10SM OVC120 08/05 A3003 RMK AO2 =
2017-02-22 03:35 METAR KJYO 220835Z AUTO 10SM BKN120 08/05 A3003 RMK AO2 =
2017-02-22 03:15 METAR KJYO 220815Z AUTO 10SM BKN120 08/05 A3004 RMK AO2 =
2017-02-22 02:55 METAR KJYO 220755Z AUTO 10SM SCT120 07/05 A3004 RMK AO2 =
2017-02-22 02:35 METAR KJYO 220735Z AUTO 10SM CLR 08/05 A3004 RMK AO2 =
2017-02-22 02:15 METAR KJYO 220715Z AUTO 10SM CLR 08/05 A3005 RMK AO2 =
2017-02-22 01:55 METAR KJYO 220655Z AUTO 10SM CLR 08/05 A3006 RMK AO2 =
2017-02-22 01:35 METAR KJYO 220635Z AUTO 10SM CLR 08/05 A3007 RMK AO2 =
2017-02-22 01:15 METAR KJYO 220615Z AUTO 10SM CLR 08/05 A3008 RMK AO2 =
2017-02-22 00:55 METAR KJYO 220555Z AUTO 10SM CLR 08/04 A3008 RMK AO2 =
2017-02-22 00:35 METAR KJYO 220535Z AUTO 10SM CLR 08/04 A3009 RMK AO2 =
2017-02-22 00:15 METAR KJYO 220515Z AUTO 10SM CLR 09/05 A3010 RMK AO2 =
2017-02-21 23:55 METAR KJYO 220455Z AUTO 10SM CLR 09/05 A3010 RMK AO2 =
2017-02-21 23:35 METAR KJYO 220435Z AUTO 10SM CLR 09/05 A3011 RMK AO2 =
2017-02-21 23:15 METAR KJYO 220415Z AUTO 10SM CLR 09/05 A3011 RMK AO2 =
2017-02-21 22:55 METAR KJYO 220355Z AUTO 10SM CLR 09/05 A3011 RMK AO2 =
2017-02-21 22:35 METAR KJYO 220335Z AUTO 10SM CLR 10/05 A3011 RMK AO2 =
2017-02-21 22:15 METAR KJYO 220315Z AUTO 10SM CLR 09/04 A3013 RMK AO2 =
2017-02-21 21:55 METAR KJYO 220255Z AUTO 10SM CLR 10/04 A3014 RMK AO2 =
2017-02-21 21:35 METAR KJYO 220235Z AUTO 10SM CLR 10/04 A3014 RMK AO2 =
2017-02-21 21:15 METAR KJYO 220215Z AUTO 10SM CLR 10/04 A3014 RMK AO2 =
2017-02-21 20:55 METAR KJYO 220155Z AUTO 10SM CLR 10/04 A3014 RMK AO2 =
2017-02-21 20:35 METAR KJYO 220135Z AUTO 10SM CLR 10/04 A3015 RMK AO2 =
2017-02-21 20:15 METAR KJYO 220115Z AUTO 10SM CLR 10/03 A3015 RMK AO2 =
2017-02-21 19:55 METAR KJYO 220055Z AUTO 10SM CLR 11/03 A3015 RMK AO2 =
2017-02-21 19:35 METAR KJYO 220035Z AUTO 10SM CLR 11/03 A3014 RMK AO2 =
2017-02-21 19:15 METAR KJYO 220015Z AUTO 10SM CLR 11/03 A3015 RMK AO2 =
2017-02-21 18:55 METAR KJYO 212355Z AUTO 10SM CLR 11/03 A3015 RMK AO2 =
2017-02-21 18:35 METAR KJYO 212335Z AUTO 10SM CLR 12/03 A3016 RMK AO2 =
2017-02-21 18:15 METAR KJYO 212315Z AUTO 10SM CLR 12/03 A3016 RMK AO2 =
2017-02-21 17:55 METAR KJYO 212255Z AUTO 10SM CLR 12/03 A3015 RMK AO2 =
2017-02-21 17:35 METAR KJYO 212235Z AUTO 10SM CLR 13/02 A3014 RMK AO2 =
2017-02-21 17:15 METAR KJYO 212215Z AUTO 14010KT 10SM CLR 13/02 A3014 RMK AO2 =
2017-02-21 16:55 METAR KJYO 212155Z AUTO 14010KT 10SM CLR 13/02 A3014 RMK AO2 =
2017-02-21 16:35 METAR KJYO 212135Z AUTO 13011KT 10SM CLR 13/01 A3015 RMK AO2 =
2017-02-21 16:15 METAR KJYO 212115Z AUTO 15010KT 10SM CLR 13/01 A3016 RMK AO2 =
2017-02-21 15:55 METAR KJYO 212055Z AUTO 13010KT 10SM CLR 13/01 A3016 RMK AO2 =
2017-02-21 15:35 METAR KJYO 212035Z AUTO 14012KT 10SM CLR 14/01 A3016 RMK AO2 =
2017-02-21 15:15 METAR KJYO 212015Z AUTO 17010KT 10SM CLR 14/01 A3018 RMK AO2 =
2017-02-21 14:55 METAR KJYO 211955Z AUTO 15010KT 130V190 10SM CLR 14/01 A3016 RMK AO2 =
2017-02-21 14:35 METAR KJYO 211935Z AUTO 16010G14KT 10SM CLR 15/01 A3018 RMK AO2 =
2017-02-21 14:15 METAR KJYO 211915Z AUTO 17012KT 10SM CLR 15/01 A3019 RMK AO2 =
2017-02-21 13:55 METAR KJYO 211855Z AUTO 10SM CLR 13/00 A3020 RMK AO2 =
2017-02-21 13:35 METAR KJYO 211835Z AUTO 10SM CLR 13/00 A3021 RMK AO2 =
2017-02-21 13:15 METAR KJYO 211815Z AUTO 10SM CLR 13/00 A3022 RMK AO2 =
2017-02-21 12:55 METAR KJYO 211755Z AUTO 10SM CLR 12/00 A3024 RMK AO2 =
2017-02-21 12:35 METAR KJYO 211735Z AUTO 10SM CLR 11/00 A3025 RMK AO2 =

Support USWX by starting your Amazon purchase here.